Terminal Aerodrome Forecast
Issued by NWS Topeka, KS

Home | Current Version | Previous Version | Graphics & Text | Print | Product List | Glossary On
Versions: 1 2 3 4 5 6 7 8 9 10 11 12 13 14 15 16 17 18
000
FTUS43 KTOP 281100
TAFTOP
TAF
KTOP 281139Z 2812/0112 09005KT P6SM SCT025 BKN040
     FM281500 13007KT 2SM -SN BR OVC015
     FM010000 14003KT 6SM BR OVC025=

USA.gov is the U.S. government's official web portal to all federal, state and local government web resources and services.